This is the latest recevied weather packets stored in our database for station/object K7OLI-13. If no packets are shown the sender has not sent any weather packets the latest 10 day(s).
| Time | Temp. | Humidity | Pressure | Rain* | Wind** | Luminosity | Snow |
|---|---|---|---|---|---|---|---|
| 1777767048 | 20° C | 67% | 1009.1 hPa | 0 mm | - | - | - |
| 1777765231 | 20° C | 67% | 1009.1 hPa | 0 mm | - | - | - |
| 1777764049 | 19.44° C | 68% | 1009.1 hPa | 0 mm | - | - | - |
| 1777763438 | 19.44° C | 68% | 1009.9 hPa | 0 mm | - | - | - |
| 1777761031 | 18.33° C | 71% | 1010.1 hPa | 0 mm | - | - | - |
| 1777760421 | 17.78° C | 72% | 1010.1 hPa | 0 mm | - | - | - |
| 1777759829 | 17.78° C | 73% | 1010.1 hPa | 0 mm | - | - | - |
| 1777758053 | 17.78° C | 72% | 1011.1 hPa | 0 mm | - | - | - |
| 1777756831 | 18.89° C | 69% | 1011.1 hPa | 0 mm | - | - | - |
| 1777754426 | 18.33° C | 69% | 1011.1 hPa | 0 mm | - | - | - |
| 1777752631 | 16.67° C | 72% | 1012.1 hPa | 0 mm | - | - | - |
| 1777741824 | 13.89° C | 78% | 1013.1 hPa | 0 mm | - | - | - |
| 1777737624 | 11.11° C | 86% | 1013.1 hPa | 0 mm | - | - | - |
| 1777733426 | 10.56° C | 89% | 1013.1 hPa | 0 mm | - | - | - |
| 1777732853 | 10.56° C | 89% | 1013.1 hPa | 0 mm | - | - | - |
| 1777729827 | 10° C | 90% | 1012.1 hPa | 0 mm | - | - | - |
| 1777729225 | 9.44° C | 90% | 1012.9 hPa | 0 mm | - | - | - |
| 1777728043 | 9.44° C | 90% | 1013.1 hPa | 0 mm | - | - | - |
| 1777727430 | 9.44° C | 90% | 1013.1 hPa | 0 mm | - | - | - |
| 1777723230 | 9.44° C | 92% | 1012.1 hPa | 0 mm | - | - | - |
| 1777720825 | 9.44° C | 92% | 1012.2 hPa | 0 mm | - | - | - |
| 1777716625 | 10° C | 90% | 1012.2 hPa | 0 mm | - | - | - |
| 1777716033 | 10.56° C | 90% | 1012.2 hPa | 0 mm | - | - | - |
| 1777713037 | 10.56° C | 89% | 1013 hPa | 0 mm | - | - | - |
| 1777708837 | 10.56° C | 88% | 1013.1 hPa | 0 mm | - | - | - |
* Rain latest hour (hover to see other rain measurements)
** Current wind speed in m/s (hover to see current wind gust speed)